createdAt,value
2023-04-02T00:01:26.515Z,85.51
2023-04-02T00:04:08.395Z,85.41
2023-04-02T00:06:44.222Z,85.34
2023-04-02T00:09:27.117Z,85.21
2023-04-02T00:11:56.280Z,85.46
2023-04-02T00:14:26.459Z,85.34
2023-04-02T00:16:56.724Z,85.45
2023-04-02T00:19:30.799Z,85.27
2023-04-02T00:21:58.550Z,85.12
2023-04-02T00:24:27.022Z,85.34
2023-04-02T00:26:55.905Z,85.43
2023-04-02T00:29:24.389Z,85.14
2023-04-02T00:31:53.839Z,85.19
2023-04-02T00:34:25.865Z,85.47
2023-04-02T00:36:54.389Z,85.34
2023-04-02T00:39:25.693Z,85.22
2023-04-02T00:42:04.657Z,85.54
2023-04-02T00:44:34.547Z,85.37
2023-04-02T00:47:08.712Z,85.31
2023-04-02T00:49:39.884Z,85.14
2023-04-02T00:52:10.509Z,85.17
2023-04-02T00:54:42.754Z,85.25
2023-04-02T00:57:17.525Z,85.25
2023-04-02T00:59:54.704Z,85.38
2023-04-02T01:02:27.708Z,85.51
2023-04-02T01:04:57.693Z,85.42
2023-04-02T01:07:38.608Z,85.54
2023-04-02T01:10:21.448Z,85.47
2023-04-02T01:12:57.063Z,85.34
2023-04-02T01:15:30.332Z,85.22
2023-04-02T01:18:26.279Z,85.41
2023-04-02T01:21:15.406Z,85.18
2023-04-02T01:23:54.036Z,85.37
2023-04-02T01:26:31.249Z,85.35
2023-04-02T01:29:07.240Z,85.49
2023-04-02T01:31:36.321Z,85.47
2023-04-02T01:34:07.223Z,85.53
2023-04-02T01:36:41.088Z,85.54
2023-04-02T01:39:16.468Z,85.27
2023-04-02T01:41:49.093Z,85.47
2023-04-02T01:44:21.348Z,85.47
2023-04-02T01:46:50.140Z,85.40
2023-04-02T01:49:21.577Z,85.60
2023-04-02T01:51:56.188Z,85.50
2023-04-02T01:54:28.207Z,85.52
2023-04-02T01:56:57.383Z,85.86
2023-04-02T01:59:26.305Z,86.09
2023-04-02T02:01:59.029Z,86.71
2023-04-02T02:04:27.558Z,86.59
2023-04-02T02:06:58.006Z,87.45
2023-04-02T02:09:29.033Z,87.03
2023-04-02T02:11:59.142Z,87.32
2023-04-02T02:14:28.636Z,88.01
2023-04-02T02:17:01.433Z,88.13
2023-04-02T02:19:34.326Z,88.02
2023-04-02T02:22:09.324Z,88.07
2023-04-02T02:24:37.888Z,87.66
2023-04-02T02:27:34.929Z,86.87
2023-04-02T02:30:09.981Z,87.02
2023-04-02T02:32:43.123Z,86.86
2023-04-02T02:35:18.499Z,86.72
2023-04-02T02:37:48.983Z,86.52
2023-04-02T02:40:21.669Z,86.53
2023-04-02T02:42:52.289Z,86.65
2023-04-02T02:45:24.462Z,86.61
2023-04-02T02:47:54.012Z,86.41
2023-04-02T02:50:24.335Z,86.22
2023-04-02T02:52:55.304Z,86.24
2023-04-02T02:55:27.256Z,86.20
2023-04-02T02:57:57.901Z,86.41
2023-04-02T03:00:27.103Z,86.04
2023-04-02T03:02:57.461Z,86.34
2023-04-02T03:05:28.004Z,86.30
2023-04-02T03:07:57.754Z,85.97
2023-04-02T03:10:32.810Z,86.25
2023-04-02T03:13:08.228Z,86.12
2023-04-02T03:15:41.960Z,86.18
2023-04-02T03:18:13.675Z,86.17
2023-04-02T03:20:46.907Z,86.12
2023-04-02T03:23:20.511Z,86.21
2023-04-02T03:25:53.636Z,86.20
2023-04-02T03:28:25.493Z,86.17
2023-04-02T03:30:56.841Z,86.09
2023-04-02T03:33:27.805Z,86.13
2023-04-02T03:35:59.969Z,85.99
2023-04-02T03:38:31.102Z,86.00
2023-04-02T03:41:05.304Z,86.43
2023-04-02T03:43:36.760Z,86.01
2023-04-02T03:46:13.304Z,85.98
2023-04-02T03:48:45.007Z,86.01
2023-04-02T03:51:17.808Z,86.06
2023-04-02T03:53:47.288Z,86.14
2023-04-02T03:56:26.048Z,86.06
2023-04-02T03:59:01.634Z,85.86
2023-04-02T04:01:33.859Z,86.10
2023-04-02T04:04:06.804Z,86.11
2023-04-02T04:06:36.238Z,85.92
2023-04-02T04:09:09.755Z,85.93
2023-04-02T04:11:44.579Z,86.25
2023-04-02T04:14:16.974Z,85.91
2023-04-02T04:16:47.753Z,86.09
2023-04-02T04:19:18.922Z,85.77
2023-04-02T04:21:47.351Z,86.13
2023-04-02T04:24:21.166Z,86.36
2023-04-02T04:26:54.589Z,86.25
2023-04-02T04:29:33.373Z,86.21
2023-04-02T04:32:17.515Z,86.30
2023-04-02T04:34:51.053Z,86.92
2023-04-02T04:37:24.593Z,86.61
2023-04-02T04:39:56.411Z,86.98
2023-04-02T04:42:27.257Z,87.10
2023-04-02T04:44:59.157Z,87.22
2023-04-02T04:47:31.608Z,86.98
2023-04-02T04:50:04.393Z,87.19
2023-04-02T04:52:36.482Z,86.88
2023-04-02T04:55:22.684Z,87.16
2023-04-02T04:57:51.756Z,87.09
2023-04-02T05:00:21.963Z,87.13
2023-04-02T05:02:53.895Z,87.39
2023-04-02T05:05:26.714Z,87.00
2023-04-02T05:08:00.060Z,87.43
2023-04-02T05:10:34.945Z,87.19
2023-04-02T05:13:07.418Z,87.20
2023-04-02T05:15:41.453Z,87.18
2023-04-02T05:18:12.710Z,86.91
2023-04-02T05:20:45.388Z,86.76
2023-04-02T05:23:17.905Z,86.37
2023-04-02T05:25:55.261Z,86.39
2023-04-02T05:28:29.080Z,86.37
2023-04-02T05:31:02.580Z,86.45
2023-04-02T05:33:33.318Z,86.08
2023-04-02T05:36:05.178Z,86.23
2023-04-02T05:38:35.622Z,86.36
2023-04-02T05:41:07.232Z,86.31
2023-04-02T05:43:37.661Z,86.25
2023-04-02T05:46:15.555Z,86.28
2023-04-02T05:48:45.630Z,86.06
2023-04-02T05:51:19.138Z,85.97
2023-04-02T05:53:51.819Z,85.94
2023-04-02T05:56:23.618Z,85.96
2023-04-02T05:58:54.392Z,85.52
2023-04-02T06:01:29.470Z,85.48
2023-04-02T06:04:03.814Z,85.40
2023-04-02T06:06:46.419Z,85.48
2023-04-02T06:09:18.746Z,85.45
2023-04-02T06:11:50.547Z,85.48
2023-04-02T06:14:19.081Z,85.15
2023-04-02T06:16:47.804Z,84.91
2023-04-02T06:19:19.642Z,85.01
2023-04-02T06:21:49.568Z,85.06
2023-04-02T06:24:21.767Z,84.95
2023-04-02T06:26:53.322Z,84.90
2023-04-02T06:29:29.572Z,84.68
2023-04-02T06:32:00.181Z,84.74
2023-04-02T06:34:30.298Z,84.69
2023-04-02T06:37:00.959Z,84.48
2023-04-02T06:39:29.499Z,84.85
2023-04-02T06:42:01.408Z,84.62
2023-04-02T06:44:33.373Z,85.03
2023-04-02T06:47:05.799Z,85.05
2023-04-02T06:49:38.152Z,85.05
2023-04-02T06:52:11.868Z,85.18
2023-04-02T06:54:40.366Z,85.11
2023-04-02T06:57:11.567Z,85.23
2023-04-02T06:59:40.001Z,85.16
2023-04-02T07:02:21.759Z,85.38
2023-04-02T07:04:50.488Z,85.59
2023-04-02T07:07:18.960Z,85.45
2023-04-02T07:09:47.372Z,85.46
2023-04-02T07:12:18.405Z,85.78
2023-04-02T07:14:47.415Z,85.48
2023-04-02T07:17:17.174Z,85.35
2023-04-02T07:19:48.898Z,85.24
2023-04-02T07:22:17.860Z,84.79
2023-04-02T07:24:46.450Z,84.73
2023-04-02T07:27:15.553Z,85.08
2023-04-02T07:29:43.884Z,84.85
2023-04-02T07:32:13.029Z,84.78
2023-04-02T07:34:42.140Z,84.62
2023-04-02T07:37:13.746Z,84.62
2023-04-02T07:39:42.404Z,84.91
2023-04-02T07:42:10.825Z,84.74
2023-04-02T07:44:39.755Z,84.96
2023-04-02T07:47:09.998Z,84.85
2023-04-02T07:49:38.395Z,84.83
2023-04-02T07:52:07.039Z,85.10
2023-04-02T07:54:35.511Z,84.94
2023-04-02T07:57:04.079Z,84.85
2023-04-02T07:59:32.534Z,84.51
2023-04-02T08:02:02.179Z,84.07
2023-04-02T08:04:30.851Z,83.89
2023-04-02T08:06:59.307Z,83.88
2023-04-02T08:09:28.044Z,83.35
2023-04-02T08:11:56.378Z,83.26
2023-04-02T08:14:24.913Z,83.52
2023-04-02T08:16:55.139Z,83.60
2023-04-02T08:19:23.847Z,83.36
2023-04-02T08:21:53.838Z,82.96
2023-04-02T08:24:22.704Z,83.00
2023-04-02T08:26:52.953Z,83.02
2023-04-02T08:29:21.767Z,83.07
2023-04-02T08:31:50.569Z,82.60
2023-04-02T08:34:19.003Z,82.64
2023-04-02T08:36:47.739Z,82.72
2023-04-02T08:39:16.285Z,83.12
2023-04-02T08:41:48.954Z,83.23
2023-04-02T08:44:27.269Z,82.67
2023-04-02T08:46:58.813Z,82.25
2023-04-02T08:49:30.995Z,82.78
2023-04-02T08:52:00.572Z,82.68
2023-04-02T08:54:31.209Z,82.82
2023-04-02T08:57:04.423Z,82.61
2023-04-02T08:59:35.023Z,82.69
2023-04-02T09:02:24.034Z,82.64
2023-04-02T09:04:52.722Z,82.12
2023-04-02T09:07:21.179Z,82.30
2023-04-02T09:09:50.087Z,82.68
2023-04-02T09:12:21.155Z,82.58
2023-04-02T09:15:01.452Z,82.90
2023-04-02T09:17:42.728Z,83.03
2023-04-02T09:20:18.545Z,83.28
2023-04-02T09:22:49.980Z,83.36
2023-04-02T09:25:22.098Z,83.49
2023-04-02T09:27:51.326Z,83.21
2023-04-02T09:30:30.121Z,83.35
2023-04-02T09:33:01.528Z,83.59
2023-04-02T09:35:32.095Z,83.67
2023-04-02T09:38:19.140Z,83.69
2023-04-02T09:40:50.625Z,83.75
2023-04-02T09:43:20.301Z,83.86
2023-04-02T09:45:58.986Z,83.90
2023-04-02T09:48:30.159Z,83.99
2023-04-02T09:51:21.022Z,83.66
2023-04-02T09:53:50.786Z,83.46
2023-04-02T09:56:22.659Z,83.23
2023-04-02T09:59:05.033Z,83.47
2023-04-02T10:01:35.549Z,83.47
2023-04-02T10:04:06.038Z,83.39
2023-04-02T10:06:35.197Z,83.37
2023-04-02T10:09:24.158Z,83.20
2023-04-02T10:11:54.501Z,84.24
2023-04-02T10:14:25.739Z,84.41
2023-04-02T10:16:56.631Z,84.39
2023-04-02T10:19:29.589Z,84.23
2023-04-02T10:21:59.268Z,84.29
2023-04-02T10:24:28.449Z,84.23
2023-04-02T10:27:02.937Z,84.15
2023-04-02T10:29:52.847Z,84.14
2023-04-02T10:32:24.975Z,84.12
2023-04-02T10:34:57.263Z,83.92
2023-04-02T10:37:51.484Z,84.03
2023-04-02T10:40:23.220Z,84.13
2023-04-02T10:42:56.911Z,83.60
2023-04-02T10:45:36.597Z,84.00
2023-04-02T10:48:13.703Z,84.00
2023-04-02T10:50:47.812Z,84.10
2023-04-02T10:53:18.494Z,84.43
2023-04-02T10:55:51.869Z,84.65
2023-04-02T10:58:25.085Z,84.67
2023-04-02T11:00:56.462Z,85.37
2023-04-02T11:03:33.836Z,85.00
2023-04-02T11:06:05.849Z,85.11
2023-04-02T11:08:41.459Z,85.33
2023-04-02T11:11:14.015Z,84.93
2023-04-02T11:13:50.706Z,85.00
2023-04-02T11:16:19.609Z,85.18
2023-04-02T11:19:19.894Z,85.39
2023-04-02T11:21:58.562Z,85.54
2023-04-02T11:24:36.963Z,85.44
2023-04-02T11:27:13.838Z,85.18
2023-04-02T11:29:43.467Z,85.03
2023-04-02T11:32:30.830Z,84.96
2023-04-02T11:35:07.124Z,84.86
2023-04-02T11:37:38.677Z,84.70
2023-04-02T11:40:39.589Z,84.64
2023-04-02T11:43:40.964Z,84.51
2023-04-02T11:46:42.428Z,84.69
2023-04-02T11:49:39.407Z,84.86
2023-04-02T11:52:25.789Z,85.43
2023-04-02T11:55:04.080Z,85.53
2023-04-02T11:57:42.858Z,85.52
2023-04-02T12:00:28.310Z,85.55
2023-04-02T12:03:13.014Z,85.45
2023-04-02T12:05:45.900Z,85.74
2023-04-02T12:08:23.989Z,85.89
2023-04-02T12:10:55.818Z,85.88
2023-04-02T12:13:51.527Z,85.92
2023-04-02T12:16:20.587Z,86.01
2023-04-02T12:18:53.310Z,85.75
2023-04-02T12:21:24.776Z,85.84
2023-04-02T12:23:55.737Z,85.96
2023-04-02T12:26:31.654Z,86.63
2023-04-02T12:29:25.581Z,86.87
2023-04-02T12:31:54.883Z,86.33
2023-04-02T12:34:25.624Z,86.30
2023-04-02T12:36:55.723Z,86.25
2023-04-02T12:39:25.994Z,86.19
2023-04-02T12:41:57.373Z,86.53
2023-04-02T12:44:27.707Z,86.18
2023-04-02T12:46:56.608Z,86.14
2023-04-02T12:49:31.531Z,86.03
2023-04-02T12:52:02.938Z,86.15
2023-04-02T12:54:36.532Z,86.27
2023-04-02T12:57:39.485Z,86.14
2023-04-02T13:00:36.575Z,85.74
2023-04-02T13:03:22.084Z,85.92
2023-04-02T13:05:56.645Z,85.21
2023-04-02T13:08:27.032Z,85.09
2023-04-02T13:10:57.726Z,85.25
2023-04-02T13:13:32.614Z,85.34
2023-04-02T13:16:02.902Z,85.61
2023-04-02T13:18:33.300Z,85.34
2023-04-02T13:21:02.951Z,85.43
2023-04-02T13:23:37.284Z,85.22
2023-04-02T13:26:16.038Z,85.44
2023-04-02T13:28:50.510Z,85.59
2023-04-02T13:31:19.013Z,85.45
2023-04-02T13:33:47.686Z,85.40
2023-04-02T13:36:17.547Z,85.44
2023-04-02T13:38:45.986Z,85.67
2023-04-02T13:41:22.217Z,85.49
2023-04-02T13:43:51.536Z,85.58
2023-04-02T13:46:22.689Z,85.45
2023-04-02T13:48:52.452Z,86.27
2023-04-02T13:51:24.229Z,85.78
2023-04-02T13:53:55.212Z,85.90
2023-04-02T13:56:24.249Z,86.34
2023-04-02T13:58:52.761Z,86.01
2023-04-02T14:01:23.335Z,86.22
2023-04-02T14:03:52.069Z,86.18
2023-04-02T14:06:24.434Z,86.16
2023-04-02T14:08:57.471Z,86.15
2023-04-02T14:11:44.451Z,86.36
2023-04-02T14:14:28.557Z,86.45
2023-04-02T14:17:07.254Z,86.32
2023-04-02T14:19:48.877Z,87.01
2023-04-02T14:22:26.607Z,86.71
2023-04-02T14:25:02.408Z,87.66
2023-04-02T14:27:37.878Z,87.60
2023-04-02T14:30:12.201Z,87.80
2023-04-02T14:32:46.935Z,87.35
2023-04-02T14:35:20.798Z,87.92
2023-04-02T14:37:55.314Z,88.78
2023-04-02T14:40:27.117Z,88.60
2023-04-02T14:43:00.097Z,88.57
2023-04-02T14:45:41.581Z,88.34
2023-04-02T14:48:21.130Z,88.61
2023-04-02T14:50:51.727Z,88.96
2023-04-02T14:53:23.007Z,88.61
2023-04-02T14:55:53.248Z,88.87
2023-04-02T14:58:25.247Z,89.20
2023-04-02T15:00:58.169Z,88.77
2023-04-02T15:03:31.025Z,88.73
2023-04-02T15:06:02.357Z,88.65
2023-04-02T15:08:34.672Z,88.59
2023-04-02T15:11:08.670Z,88.48
2023-04-02T15:13:37.958Z,88.35
2023-04-02T15:16:11.492Z,88.27
2023-04-02T15:18:40.241Z,88.11
2023-04-02T15:21:43.443Z,88.66
2023-04-02T15:24:22.622Z,89.26
2023-04-02T15:26:56.784Z,89.26
2023-04-02T15:29:31.024Z,88.83
2023-04-02T15:32:04.065Z,89.19
2023-04-02T15:34:35.911Z,89.07
2023-04-02T15:37:17.306Z,88.95
2023-04-02T15:39:56.523Z,89.42
2023-04-02T15:42:27.819Z,89.75
2023-04-02T15:45:21.201Z,89.69
2023-04-02T15:48:10.425Z,90.60
2023-04-02T15:50:47.080Z,90.08
2023-04-02T15:53:26.983Z,89.97
2023-04-02T15:56:05.101Z,90.09
2023-04-02T15:58:45.034Z,90.20
2023-04-02T16:01:21.488Z,90.72
2023-04-02T16:04:09.654Z,90.57
2023-04-02T16:06:47.732Z,90.49
2023-04-02T16:09:21.449Z,90.70
2023-04-02T16:11:51.617Z,90.97
2023-04-02T16:14:25.482Z,90.97
2023-04-02T16:16:57.525Z,91.04
2023-04-02T16:19:30.323Z,91.40
2023-04-02T16:22:05.022Z,91.90
2023-04-02T16:24:33.689Z,91.98
2023-04-02T16:27:14.306Z,91.32
2023-04-02T16:29:55.600Z,91.17
2023-04-02T16:32:38.330Z,92.14
2023-04-02T16:35:40.620Z,91.98
2023-04-02T16:38:18.261Z,92.26
2023-04-02T16:41:07.004Z,91.77
2023-04-02T16:43:41.364Z,91.62
2023-04-02T16:46:13.539Z,91.46
2023-04-02T16:48:46.593Z,91.44
2023-04-02T16:51:20.544Z,91.93
2023-04-02T16:54:01.136Z,92.08
2023-04-02T16:56:43.478Z,92.41
2023-04-02T16:59:20.063Z,92.19
2023-04-02T17:01:57.018Z,92.10
2023-04-02T17:04:49.158Z,91.78
2023-04-02T17:07:26.471Z,91.89
2023-04-02T17:10:02.615Z,92.01
2023-04-02T17:12:36.532Z,92.27
2023-04-02T17:15:20.668Z,92.69
2023-04-02T17:17:57.686Z,92.91
2023-04-02T17:20:27.046Z,92.68
2023-04-02T17:22:56.768Z,93.66
2023-04-02T17:25:28.598Z,94.21
2023-04-02T17:27:57.080Z,93.48
2023-04-02T17:30:36.046Z,93.47
2023-04-02T17:33:07.913Z,93.47
2023-04-02T17:35:48.510Z,93.74
2023-04-02T17:38:23.347Z,93.31
2023-04-02T17:40:56.149Z,93.38
2023-04-02T17:43:36.735Z,93.81
2023-04-02T17:46:09.506Z,94.54
2023-04-02T17:48:42.425Z,94.64
2023-04-02T17:51:16.713Z,94.52
2023-04-02T17:53:58.373Z,94.53
2023-04-02T17:56:38.380Z,94.39
2023-04-02T17:59:29.073Z,93.89
2023-04-02T18:02:04.923Z,93.82
2023-04-02T18:04:40.934Z,93.39
2023-04-02T18:07:31.173Z,93.22
2023-04-02T18:10:06.821Z,92.90
2023-04-02T18:12:48.927Z,92.74
2023-04-02T18:15:38.016Z,92.73
2023-04-02T18:18:10.503Z,92.36
2023-04-02T18:20:42.920Z,92.42
2023-04-02T18:23:16.156Z,92.25
2023-04-02T18:25:50.575Z,91.98
2023-04-02T18:28:33.533Z,91.74
2023-04-02T18:31:04.820Z,91.73
2023-04-02T18:34:03.592Z,91.46
2023-04-02T18:36:38.937Z,91.28
2023-04-02T18:39:13.170Z,91.15
2023-04-02T18:41:49.318Z,90.99
2023-04-02T18:44:32.556Z,90.74
2023-04-02T18:47:07.222Z,90.78
2023-04-02T18:49:39.592Z,90.68
2023-04-02T18:52:13.967Z,90.62
2023-04-02T18:54:45.362Z,90.52
2023-04-02T18:57:16.205Z,90.12
2023-04-02T18:59:48.774Z,89.97
2023-04-02T19:02:30.259Z,89.60
2023-04-02T19:05:02.039Z,89.45
2023-04-02T19:07:34.951Z,89.39
2023-04-02T19:10:11.491Z,89.28
2023-04-02T19:12:40.137Z,89.38
2023-04-02T19:15:18.991Z,89.38
2023-04-02T19:17:49.472Z,89.15
2023-04-02T19:20:25.322Z,89.17
2023-04-02T19:23:00.290Z,89.07
2023-04-02T19:25:39.952Z,89.20
2023-04-02T19:28:13.196Z,89.02
2023-04-02T19:30:56.442Z,88.80
2023-04-02T19:33:44.221Z,88.86
2023-04-02T19:36:23.617Z,88.91
2023-04-02T19:39:03.378Z,88.25
2023-04-02T19:41:37.506Z,88.44
2023-04-02T19:44:09.761Z,88.48
2023-04-02T19:46:39.505Z,88.26
2023-04-02T19:49:10.418Z,88.27
2023-04-02T19:51:38.771Z,88.17
2023-04-02T19:54:07.349Z,88.29
2023-04-02T19:56:35.822Z,88.10
2023-04-02T19:59:17.166Z,88.12
2023-04-02T20:01:47.219Z,87.25
2023-04-02T20:04:16.016Z,87.08
2023-04-02T20:06:44.496Z,86.71
2023-04-02T20:09:13.089Z,86.96
2023-04-02T20:11:41.512Z,86.91
2023-04-02T20:14:09.889Z,86.84
2023-04-02T20:16:38.409Z,86.66
2023-04-02T20:19:06.933Z,86.67
2023-04-02T20:21:37.501Z,86.12
2023-04-02T20:24:07.178Z,86.08
2023-04-02T20:26:36.188Z,85.79
2023-04-02T20:29:04.894Z,85.61
2023-04-02T20:31:33.374Z,85.52
2023-04-02T20:34:04.404Z,85.40
2023-04-02T20:36:32.879Z,85.34
2023-04-02T20:39:01.540Z,85.11
2023-04-02T20:41:30.591Z,84.59
2023-04-02T20:43:59.017Z,83.78
2023-04-02T20:46:27.724Z,84.30
2023-04-02T20:48:56.560Z,84.57
2023-04-02T20:51:25.291Z,84.03
2023-04-02T20:53:54.910Z,81.69
2023-04-02T20:56:23.404Z,82.67
2023-04-02T20:58:52.077Z,82.37
2023-04-02T21:01:22.271Z,82.65
2023-04-02T21:03:54.814Z,82.94
2023-04-02T21:06:25.744Z,82.18
2023-04-02T21:08:54.454Z,80.51
2023-04-02T21:11:23.213Z,81.49
2023-04-02T21:13:52.318Z,80.69
2023-04-02T21:16:22.203Z,79.33
2023-04-02T21:18:52.159Z,79.28
2023-04-02T21:21:22.230Z,78.31
2023-04-02T21:23:56.393Z,78.82
2023-04-02T21:26:25.774Z,78.04
2023-04-02T21:28:54.728Z,78.23
2023-04-02T21:31:24.497Z,78.47
2023-04-02T21:33:55.064Z,78.62
2023-04-02T21:36:25.095Z,78.15
2023-04-02T21:38:55.312Z,74.55
2023-04-02T21:41:25.809Z,76.37
2023-04-02T21:43:55.187Z,76.96
2023-04-02T21:46:26.259Z,76.47
2023-04-02T21:48:56.463Z,76.45
2023-04-02T21:51:26.254Z,76.57
2023-04-02T21:53:55.030Z,76.55
2023-04-02T21:56:25.744Z,76.34
2023-04-02T21:58:56.096Z,75.85
2023-04-02T22:01:28.039Z,75.83
2023-04-02T22:03:58.494Z,75.15
2023-04-02T22:06:28.721Z,75.08
2023-04-02T22:08:59.363Z,70.81
2023-04-02T22:11:30.623Z,72.56
2023-04-02T22:13:59.542Z,73.09
2023-04-02T22:16:29.773Z,70.05
2023-04-02T22:19:00.409Z,70.30
2023-04-02T22:21:29.794Z,71.86
2023-04-02T22:24:00.347Z,71.35
2023-04-02T22:26:29.396Z,71.25
2023-04-02T22:28:57.780Z,70.63
2023-04-02T22:31:27.695Z,71.51
2023-04-02T22:33:57.299Z,72.20
2023-04-02T22:36:27.229Z,71.39
2023-04-02T22:38:55.703Z,71.55
2023-04-02T22:41:25.788Z,71.53
2023-04-02T22:43:55.020Z,71.87
2023-04-02T22:46:24.001Z,70.20
2023-04-02T22:48:53.175Z,68.82
2023-04-02T22:51:22.801Z,69.49
2023-04-02T22:53:52.321Z,70.31
2023-04-02T22:56:22.666Z,68.93
2023-04-02T22:58:51.017Z,69.95
2023-04-02T23:01:22.039Z,69.94
2023-04-02T23:03:52.209Z,70.26
2023-04-02T23:06:21.036Z,69.75
2023-04-02T23:08:49.455Z,70.07
2023-04-02T23:11:21.364Z,69.05
2023-04-02T23:13:52.044Z,69.74
2023-04-02T23:16:22.052Z,68.76
2023-04-02T23:18:51.193Z,69.05
2023-04-02T23:21:21.124Z,68.91
2023-04-02T23:23:50.510Z,69.05
2023-04-02T23:26:21.121Z,69.16
2023-04-02T23:28:50.386Z,65.90
2023-04-02T23:31:20.407Z,68.31
2023-04-02T23:33:48.883Z,68.52
2023-04-02T23:36:24.200Z,68.16
2023-04-02T23:38:54.715Z,68.33
2023-04-02T23:41:24.427Z,68.29
2023-04-02T23:43:53.345Z,68.15
2023-04-02T23:46:22.398Z,68.24
2023-04-02T23:48:51.666Z,67.67
2023-04-02T23:51:20.201Z,66.19
2023-04-02T23:53:49.215Z,66.61
2023-04-02T23:56:18.354Z,67.36
2023-04-02T23:58:46.966Z,67.35
